Time;durP1;ratioP1;P1;durP2;ratioP2;P2;SDS_P1;SDS_P2;PMS_P1;PMS_P2;Temp;Humidity;BMP_temperature;BMP_pressure;BME280_temperature;BME280_humidity;BME280_pressure;Samples;Min_cycle;Max_cycle;Signal;HPM_P1;HPM_P2
2022/07/19 00:04:00;;;;;;;4.60;2.50;;;;;;;;;;10556870;28;20063;-73
2022/07/19 00:09:03;;;;;;;4.53;2.70;;;;;;;;;;10565088;27;20058;-71
2022/07/19 00:14:07;;;;;;;5.53;2.80;;;;;;;;;;10556772;28;20618;-72
2022/07/19 00:19:10;;;;;;;3.90;2.83;;;;;;;;;;10566700;28;20050;-72
2022/07/19 00:24:13;;;;;;;4.55;2.72;;;;;;;;;;10556274;27;20058;-69
2022/07/19 00:29:17;;;;;;;4.03;2.55;;;;;;;;;;10560418;28;20043;-70
2022/07/19 00:34:20;;;;;;;6.30;2.78;;;;;;;;;;10563881;27;20380;-71
2022/07/19 00:39:23;;;;;;;6.07;2.93;;;;;;;;;;10561193;27;20038;-72
2022/07/19 00:44:27;;;;;;;3.38;2.50;;;;;;;;;;10559981;28;20084;-72
2022/07/19 00:49:29;;;;;;;5.05;2.63;;;;;;;;;;10560014;28;20067;-71
2022/07/19 00:54:34;;;;;;;4.40;2.40;;;;;;;;;;10556613;28;20036;-72
2022/07/19 00:59:39;;;;;;;3.50;2.60;;;;;;;;;;10566662;28;20059;-70
2022/07/19 01:04:42;;;;;;;3.58;2.63;;;;;;;;;;10558267;28;20144;-71
2022/07/19 01:09:44;;;;;;;4.53;2.63;;;;;;;;;;10564748;28;20504;-71
2022/07/19 01:14:56;;;;;;;3.85;2.50;;;;;;;;;;10562295;28;20673;-72
2022/07/19 01:19:59;;;;;;;4.07;2.70;;;;;;;;;;10564652;28;20118;-72
2022/07/19 01:25:04;;;;;;;5.38;2.90;;;;;;;;;;10559724;28;20043;-70
2022/07/19 01:30:21;;;;;;;5.47;3.00;;;;;;;;;;10564857;28;20036;-72
2022/07/19 01:35:35;;;;;;;6.03;2.97;;;;;;;;;;10563165;28;20126;-70
2022/07/19 01:40:46;;;;;;;5.60;2.80;;;;;;;;;;10560265;28;20051;-72
2022/07/19 01:45:50;;;;;;;4.43;2.75;;;;;;;;;;10558823;28;20032;-71
2022/07/19 01:50:53;;;;;;;7.00;3.30;;;;;;;;;;10567077;28;20118;-71
2022/07/19 01:55:57;;;;;;;3.37;2.40;;;;;;;;;;10562665;27;20052;-70
2022/07/19 02:01:00;;;;;;;4.43;2.80;;;;;;;;;;10562108;28;20320;-70
2022/07/19 02:06:03;;;;;;;3.40;2.77;;;;;;;;;;10566847;28;20043;-69
2022/07/19 02:16:25;;;;;;;5.38;2.88;;;;;;;;;;10562342;28;20166;-71
2022/07/19 02:21:28;;;;;;;6.65;3.03;;;;;;;;;;10564687;28;20044;-70
2022/07/19 02:26:33;;;;;;;5.25;2.90;;;;;;;;;;10561107;28;20032;-71
2022/07/19 02:31:40;;;;;;;3.95;2.80;;;;;;;;;;10566868;27;20036;-71
2022/07/19 02:36:43;;;;;;;5.10;2.88;;;;;;;;;;10554668;27;20070;-71
2022/07/19 02:41:48;;;;;;;4.53;2.75;;;;;;;;;;10563346;28;20039;-70
2022/07/19 02:46:51;;;;;;;3.78;2.70;;;;;;;;;;10566740;27;20067;-69
2022/07/19 02:51:53;;;;;;;5.20;2.73;;;;;;;;;;10560576;28;20123;-70
2022/07/19 02:56:57;;;;;;;4.03;3.10;;;;;;;;;;10559077;27;20365;-71
2022/07/19 03:02:01;;;;;;;4.88;2.70;;;;;;;;;;10566079;27;20039;-70
2022/07/19 03:07:04;;;;;;;5.60;3.10;;;;;;;;;;10562094;27;20118;-72
2022/07/19 03:12:07;;;;;;;;;;;;;;;;;;10564089;27;20043;-69
2022/07/19 03:17:12;;;;;;;7.30;3.10;;;;;;;;;;10553182;27;20455;-71
2022/07/19 03:22:15;;;;;;;3.85;2.55;;;;;;;;;;10553769;27;20333;-71
2022/07/19 03:27:19;;;;;;;;;;;;;;;;;;10549975;27;20090;-71
2022/07/19 03:32:23;;;;;;;4.45;2.70;;;;;;;;;;10564488;27;19943;-70
2022/07/19 03:37:27;;;;;;;6.63;3.00;;;;;;;;;;10547160;28;20610;-72
2022/07/19 03:42:30;;;;;;;4.18;2.70;;;;;;;;;;10545150;27;20441;-71
2022/07/19 03:47:34;;;;;;;3.47;2.57;;;;;;;;;;10558777;27;20406;-71
2022/07/19 03:52:37;;;;;;;4.32;2.97;;;;;;;;;;10548272;27;20085;-70
2022/07/19 03:57:40;;;;;;;4.57;2.97;;;;;;;;;;10552149;27;20564;-71
2022/07/19 04:02:45;;;;;;;3.38;2.63;;;;;;;;;;10560592;27;20036;-70
2022/07/19 04:07:48;;;;;;;4.20;2.72;;;;;;;;;;10555150;27;20038;-70
2022/07/19 04:12:51;;;;;;;4.63;3.00;;;;;;;;;;10553199;27;20126;-69
2022/07/19 04:17:57;;;;;;;4.70;3.05;;;;;;;;;;10562713;27;20044;-70
2022/07/19 04:23:01;;;;;;;5.43;3.25;;;;;;;;;;10558068;28;20039;-71
2022/07/19 04:28:05;;;;;;;4.82;2.83;;;;;;;;;;10557390;27;20891;-71
2022/07/19 04:33:10;;;;;;;5.30;2.67;;;;;;;;;;10550556;28;20039;-70
2022/07/19 04:38:13;;;;;;;5.50;2.95;;;;;;;;;;10564955;27;20058;-71
2022/07/19 04:43:16;;;;;;;3.92;2.67;;;;;;;;;;10564967;27;20060;-70
2022/07/19 04:48:19;;;;;;;;;;;;;;;;;;10557575;27;20063;-71
2022/07/19 04:53:23;;;;;;;4.75;2.85;;;;;;;;;;10556068;28;19926;-72
2022/07/19 04:58:27;;;;;;;5.25;3.08;;;;;;;;;;10553958;28;20031;-72
2022/07/19 05:03:31;;;;;;;4.82;2.70;;;;;;;;;;10550746;27;20082;-71
2022/07/19 05:08:36;;;;;;;4.68;2.85;;;;;;;;;;10560998;28;20504;-72
2022/07/19 05:13:39;;;;;;;7.32;2.97;;;;;;;;;;10556791;28;20036;-72
2022/07/19 05:18:42;;;;;;;7.13;2.95;;;;;;;;;;10561380;28;20040;-72
2022/07/19 05:23:46;;;;;;;5.13;2.65;;;;;;;;;;10566949;28;20061;-72
2022/07/19 05:28:49;;;;;;;6.93;3.15;;;;;;;;;;10568858;28;20421;-72
2022/07/19 05:33:52;;;;;;;6.57;3.10;;;;;;;;;;10565081;28;20031;-72
2022/07/19 05:38:56;;;;;;;4.70;2.58;;;;;;;;;;10565198;28;20043;-70
2022/07/19 05:43:59;;;;;;;4.47;2.70;;;;;;;;;;10554222;27;20171;-71
2022/07/19 05:49:03;;;;;;;5.55;3.00;;;;;;;;;;10562339;27;20054;-71
2022/07/19 05:54:07;;;;;;;3.83;2.78;;;;;;;;;;10566860;28;20492;-70
2022/07/19 05:59:10;;;;;;;6.32;3.10;;;;;;;;;;10566453;27;20554;-71
2022/07/19 06:04:13;;;;;;;3.45;2.50;;;;;;;;;;10566317;27;20040;-72
2022/07/19 06:09:19;;;;;;;6.40;2.50;;;;;;;;;;10558286;28;20043;-70
2022/07/19 06:14:21;;;;;;;7.00;2.80;;;;;;;;;;10569918;28;20130;-71
2022/07/19 06:19:25;;;;;;;11.27;3.05;;;;;;;;;;10562357;27;20035;-71
2022/07/19 06:24:30;;;;;;;4.10;2.55;;;;;;;;;;10552343;27;20059;-71
2022/07/19 06:29:32;;;;;;;6.82;2.97;;;;;;;;;;10563565;28;20040;-71
2022/07/19 06:34:35;;;;;;;5.18;2.40;;;;;;;;;;10563680;27;20055;-69
2022/07/19 06:39:39;;;;;;;4.30;2.60;;;;;;;;;;10558746;27;20067;-70
2022/07/19 06:44:43;;;;;;;4.63;2.22;;;;;;;;;;10557830;28;20407;-71
2022/07/19 06:49:46;;;;;;;4.57;2.92;;;;;;;;;;10565470;27;20071;-70
2022/07/19 06:54:53;;;;;;;5.05;2.58;;;;;;;;;;10560131;27;20028;-70
2022/07/19 06:59:56;;;;;;;7.25;2.92;;;;;;;;;;10558262;27;20067;-72
2022/07/19 07:04:59;;;;;;;5.95;2.90;;;;;;;;;;10554828;27;20115;-72
2022/07/19 07:10:04;;;;;;;3.33;2.63;;;;;;;;;;10561179;27;20065;-70
2022/07/19 07:15:11;;;;;;;3.70;2.67;;;;;;;;;;10556383;27;20422;-70
2022/07/19 07:20:14;;;;;;;;;;;;;;;;;;10556547;27;20032;-70
2022/07/19 07:25:19;;;;;;;3.25;2.45;;;;;;;;;;10556601;28;19920;-72
2022/07/19 07:30:21;;;;;;;3.50;2.50;;;;;;;;;;10561649;28;20043;-74
2022/07/19 07:35:24;;;;;;;3.78;2.22;;;;;;;;;;10557301;27;20035;-72
2022/07/19 07:40:30;;;;;;;3.50;2.53;;;;;;;;;;10559617;27;20643;-72
2022/07/19 07:45:33;;;;;;;4.22;2.67;;;;;;;;;;10558612;27;20050;-72
2022/07/19 07:50:38;;;;;;;5.57;2.95;;;;;;;;;;10559703;27;20040;-72
2022/07/19 07:55:40;;;;;;;;;;;;;;;;;;10565773;27;20496;-73
2022/07/19 08:00:44;;;;;;;5.88;3.08;;;;;;;;;;10567379;27;19924;-72
2022/07/19 08:05:48;;;;;;;5.35;2.78;;;;;;;;;;10558753;27;20075;-71
2022/07/19 08:10:50;;;;;;;3.10;2.53;;;;;;;;;;10554935;28;20471;-70
2022/07/19 08:15:55;;;;;;;7.68;2.90;;;;;;;;;;10565333;28;20126;-71
2022/07/19 08:20:59;;;;;;;3.10;2.47;;;;;;;;;;10558550;27;20059;-71
2022/07/19 08:26:02;;;;;;;4.03;2.35;;;;;;;;;;10562017;28;20042;-72
2022/07/19 08:31:07;;;;;;;5.82;3.10;;;;;;;;;;10558998;28;20055;-71
2022/07/19 08:36:17;;;;;;;8.88;3.03;;;;;;;;;;10561947;28;20035;-70
2022/07/19 08:41:21;;;;;;;3.35;2.60;;;;;;;;;;10552461;28;20066;-71
2022/07/19 08:46:25;;;;;;;9.85;2.63;;;;;;;;;;10560300;27;20541;-71
2022/07/19 08:51:29;;;;;;;13.70;2.92;;;;;;;;;;10563214;27;20089;-71
2022/07/19 09:02:09;;;;;;;2.67;2.20;;;;;;;;;;10389904;28;20072;-71
2022/07/19 09:07:19;;;;;;;3.33;2.30;;;;;;;;;;10522932;28;20065;-71
2022/07/19 09:12:22;;;;;;;5.50;2.65;;;;;;;;;;10556630;28;20046;-70
2022/07/19 09:17:30;;;;;;;3.75;2.63;;;;;;;;;;10553652;28;20031;-70
2022/07/19 09:22:35;;;;;;;2.75;2.40;;;;;;;;;;10552067;28;20643;-71
2022/07/19 09:27:43;;;;;;;3.63;2.60;;;;;;;;;;10554265;28;20067;-71
2022/07/19 09:32:47;;;;;;;2.88;2.42;;;;;;;;;;10557509;28;20143;-72
2022/07/19 09:37:51;;;;;;;3.00;2.40;;;;;;;;;;10555619;28;20085;-72
2022/07/19 09:42:54;;;;;;;5.38;2.28;;;;;;;;;;10556786;28;20054;-72
2022/07/19 09:48:00;;;;;;;4.57;2.33;;;;;;;;;;10560572;28;20431;-71
2022/07/19 09:53:03;;;;;;;3.08;2.40;;;;;;;;;;10557577;28;20058;-71
2022/07/19 09:58:07;;;;;;;3.17;2.55;;;;;;;;;;10561655;28;20112;-71
2022/07/19 10:03:12;;;;;;;4.07;2.70;;;;;;;;;;10557868;28;20055;-72
2022/07/19 10:08:15;;;;;;;5.57;2.50;;;;;;;;;;10564594;28;20039;-72
2022/07/19 10:13:18;;;;;;;3.08;2.80;;;;;;;;;;10567452;27;20551;-72
2022/07/19 10:18:25;;;;;;;3.10;2.80;;;;;;;;;;10567464;27;20118;-71
2022/07/19 10:23:28;;;;;;;3.17;2.60;;;;;;;;;;10562855;28;20059;-73
2022/07/19 10:28:36;;;;;;;3.92;2.50;;;;;;;;;;10563557;27;20039;-71
2022/07/19 10:34:01;;;;;;;3.47;2.75;;;;;;;;;;10560183;27;20063;-71
2022/07/19 10:39:26;;;;;;;3.28;2.92;;;;;;;;;;10567060;28;20043;-71
2022/07/19 10:44:53;;;;;;;5.07;2.88;;;;;;;;;;10561175;28;20044;-71
2022/07/19 10:50:00;;;;;;;6.40;3.40;;;;;;;;;;10551743;28;20044;-72
2022/07/19 10:55:03;;;;;;;;;;;;;;;;;;10560376;28;20033;-71
2022/07/19 11:00:16;;;;;;;2.78;2.58;;;;;;;;;;10562509;28;19926;-71
2022/07/19 11:05:24;;;;;;;3.15;2.53;;;;;;;;;;10564154;27;20056;-72
2022/07/19 11:10:28;;;;;;;4.20;2.92;;;;;;;;;;10561226;27;20491;-70
2022/07/19 11:15:31;;;;;;;7.45;4.57;;;;;;;;;;10542689;28;20114;-71
2022/07/19 11:20:42;;;;;;;3.75;3.10;;;;;;;;;;10543253;28;20131;-72
2022/07/19 11:25:46;;;;;;;4.00;3.50;;;;;;;;;;10550414;28;22399;-72
2022/07/19 11:30:49;;;;;;;5.85;3.30;;;;;;;;;;10551622;27;20120;-73
2022/07/19 11:35:55;;;;;;;4.82;2.97;;;;;;;;;;10555154;27;20039;-72
2022/07/19 11:40:57;;;;;;;4.82;3.30;;;;;;;;;;10550274;28;20039;-72
2022/07/19 11:46:00;;;;;;;5.05;2.72;;;;;;;;;;10547393;27;20497;-70
2022/07/19 11:51:06;;;;;;;5.55;2.83;;;;;;;;;;10567371;27;20567;-72
2022/07/19 11:56:17;;;;;;;6.43;3.20;;;;;;;;;;10558524;28;20164;-72
2022/07/19 12:01:24;;;;;;;4.00;3.17;;;;;;;;;;10566644;27;20035;-72
2022/07/19 12:06:38;;;;;;;5.93;3.38;;;;;;;;;;10558030;27;20399;-72
2022/07/19 12:11:42;;;;;;;5.47;3.20;;;;;;;;;;10560059;28;20032;-71
2022/07/19 12:16:46;;;;;;;4.03;3.35;;;;;;;;;;10559925;27;20051;-72
2022/07/19 12:21:50;;;;;;;5.40;3.65;;;;;;;;;;10559220;28;20073;-73
2022/07/19 12:26:57;;;;;;;5.85;3.20;;;;;;;;;;10567579;27;20044;-71
2022/07/19 12:32:00;;;;;;;5.32;3.40;;;;;;;;;;10558019;27;20574;-71
2022/07/19 12:37:19;;;;;;;4.22;3.20;;;;;;;;;;10558312;28;20031;-70
2022/07/19 12:42:22;;;;;;;6.63;2.90;;;;;;;;;;10559297;27;20028;-73
2022/07/19 12:47:25;;;;;;;5.95;3.47;;;;;;;;;;10558123;28;20118;-71
2022/07/19 12:52:44;;;;;;;6.75;3.50;;;;;;;;;;10560611;28;20117;-72
2022/07/19 12:57:48;;;;;;;5.57;3.58;;;;;;;;;;10559688;28;20051;-71
2022/07/19 13:02:52;;;;;;;7.78;3.95;;;;;;;;;;10561216;28;20059;-71
2022/07/19 13:07:59;;;;;;;7.97;4.35;;;;;;;;;;10555601;28;20036;-72
2022/07/19 13:13:02;;;;;;;6.72;4.25;;;;;;;;;;10556741;28;20040;-72
2022/07/19 13:18:04;;;;;;;8.50;4.13;;;;;;;;;;10555218;28;20048;-70
2022/07/19 13:23:09;;;;;;;7.15;3.97;;;;;;;;;;10557927;28;20069;-72
2022/07/19 13:28:13;;;;;;;6.57;3.72;;;;;;;;;;10557567;28;20803;-71
2022/07/19 13:33:16;;;;;;;6.47;4.32;;;;;;;;;;10555640;28;20132;-72
2022/07/19 13:38:21;;;;;;;7.63;4.00;;;;;;;;;;10554204;28;20036;-73
2022/07/19 13:43:24;;;;;;;9.30;4.35;;;;;;;;;;10566239;28;20119;-73
2022/07/19 13:48:27;;;;;;;7.90;4.47;;;;;;;;;;10564908;28;20066;-73
2022/07/19 13:53:31;;;;;;;7.25;3.67;;;;;;;;;;10560640;27;20447;-72
2022/07/19 13:58:34;;;;;;;10.73;4.90;;;;;;;;;;10563637;28;20039;-72
2022/07/19 14:03:36;;;;;;;8.68;5.13;;;;;;;;;;10562216;27;20133;-71
2022/07/19 14:08:41;;;;;;;8.90;4.95;;;;;;;;;;10563235;27;20059;-72
2022/07/19 14:13:43;;;;;;;8.57;5.13;;;;;;;;;;10559944;27;20028;-72
2022/07/19 14:18:47;;;;;;;8.63;5.30;;;;;;;;;;10565192;27;20097;-72
2022/07/19 14:23:51;;;;;;;11.48;5.68;;;;;;;;;;10557985;28;20157;-70
2022/07/19 14:28:54;;;;;;;9.00;4.65;;;;;;;;;;10561378;27;20039;-72
2022/07/19 14:33:57;;;;;;;11.95;5.10;;;;;;;;;;10559464;28;20040;-72
2022/07/19 14:39:21;;;;;;;8.80;4.95;;;;;;;;;;10566772;27;20414;-71
2022/07/19 14:44:24;;;;;;;7.72;4.68;;;;;;;;;;10559240;28;20119;-72
2022/07/19 14:49:27;;;;;;;6.50;4.80;;;;;;;;;;10558600;27;20044;-72
2022/07/19 14:54:31;;;;;;;7.22;4.53;;;;;;;;;;10561311;27;20096;-71
2022/07/19 14:59:34;;;;;;;7.47;3.95;;;;;;;;;;10568985;27;20036;-72
2022/07/19 15:04:37;;;;;;;5.93;3.38;;;;;;;;;;10561112;27;20059;-71
2022/07/19 15:09:41;;;;;;;9.13;4.18;;;;;;;;;;10556408;27;20071;-72
2022/07/19 15:14:44;;;;;;;6.38;3.67;;;;;;;;;;10565621;27;20024;-71
2022/07/19 15:19:46;;;;;;;8.68;4.30;;;;;;;;;;10558098;28;20050;-72
2022/07/19 15:24:50;;;;;;;6.53;3.78;;;;;;;;;;10560215;27;20063;-72
2022/07/19 15:29:53;;;;;;;6.75;3.97;;;;;;;;;;10569249;27;20028;-72
2022/07/19 15:35:03;;;;;;;8.18;3.90;;;;;;;;;;10561345;27;20115;-74
2022/07/19 15:40:14;;;;;;;9.88;3.80;;;;;;;;;;10561143;28;20082;-70
2022/07/19 15:45:17;;;;;;;8.82;3.97;;;;;;;;;;10563100;27;20081;-73
2022/07/19 15:50:19;;;;;;;7.38;3.92;;;;;;;;;;10564304;27;20039;-71
2022/07/19 15:55:25;;;;;;;13.57;3.50;;;;;;;;;;10568524;28;20035;-72
2022/07/19 16:00:28;;;;;;;6.47;4.18;;;;;;;;;;10561996;28;20080;-76
2022/07/19 16:05:30;;;;;;;7.00;4.30;;;;;;;;;;10556967;28;20039;-73
2022/07/19 16:10:34;;;;;;;8.05;3.83;;;;;;;;;;10563924;28;20089;-72
2022/07/19 16:15:37;;;;;;;6.50;3.65;;;;;;;;;;10564461;27;20039;-72
2022/07/19 16:20:40;;;;;;;7.60;4.15;;;;;;;;;;10556914;28;20435;-72
2022/07/19 16:25:45;;;;;;;7.97;4.00;;;;;;;;;;10560702;28;20321;-72
2022/07/19 16:30:47;;;;;;;6.53;4.18;;;;;;;;;;10565393;27;20040;-73
2022/07/19 16:35:50;;;;;;;7.55;3.78;;;;;;;;;;10556061;28;20531;-73
2022/07/19 16:40:54;;;;;;;10.48;4.88;;;;;;;;;;10561859;28;20052;-73
2022/07/19 16:45:57;;;;;;;11.52;4.30;;;;;;;;;;10562885;27;20059;-71
2022/07/19 16:51:03;;;;;;;9.80;4.78;;;;;;;;;;10566110;27;20044;-72
2022/07/19 16:56:08;;;;;;;9.95;5.10;;;;;;;;;;10554635;28;20042;-72
2022/07/19 17:01:11;;;;;;;8.75;5.00;;;;;;;;;;10564014;28;20119;-73
2022/07/19 17:06:18;;;;;;;10.27;4.50;;;;;;;;;;10557342;27;20047;-72
2022/07/19 17:11:23;;;;;;;12.05;4.45;;;;;;;;;;10558446;28;20047;-72
2022/07/19 17:16:26;;;;;;;9.90;4.60;;;;;;;;;;10560679;27;20031;-72
2022/07/19 17:21:29;;;;;;;10.13;4.25;;;;;;;;;;10564865;27;20043;-72
2022/07/19 17:26:34;;;;;;;8.52;4.47;;;;;;;;;;10571786;27;20023;-73
2022/07/19 17:31:36;;;;;;;10.55;4.80;;;;;;;;;;10565609;27;20031;-73
2022/07/19 17:36:40;;;;;;;9.20;4.30;;;;;;;;;;10566471;28;20042;-72
2022/07/19 17:41:52;;;;;;;14.53;4.97;;;;;;;;;;10567060;28;20071;-72
2022/07/19 17:46:55;;;;;;;12.80;6.00;;;;;;;;;;10571061;27;20036;-72
2022/07/19 17:51:58;;;;;;;11.30;4.57;;;;;;;;;;10568458;27;20063;-72
2022/07/19 17:57:03;;;;;;;10.13;4.50;;;;;;;;;;10566994;27;20062;-73
2022/07/19 18:02:06;;;;;;;14.68;4.90;;;;;;;;;;10565574;27;20042;-73
2022/07/19 18:07:29;;;;;;;7.97;3.78;;;;;;;;;;10565179;27;20028;-72
2022/07/19 18:12:33;;;;;;;16.98;4.47;;;;;;;;;;10563044;27;20047;-73
2022/07/19 18:17:36;;;;;;;16.65;4.40;;;;;;;;;;10556785;27;20059;-72
2022/07/19 18:22:40;;;;;;;6.68;3.60;;;;;;;;;;10558737;27;20228;-74
2022/07/19 18:27:44;;;;;;;10.68;3.92;;;;;;;;;;10555035;27;20051;-74
2022/07/19 18:32:47;;;;;;;13.27;4.10;;;;;;;;;;10547815;28;20116;-72
2022/07/19 18:37:49;;;;;;;12.20;3.60;;;;;;;;;;10550601;27;20032;-72
2022/07/19 18:42:53;;;;;;;9.70;3.75;;;;;;;;;;10556068;27;20035;-73
2022/07/19 18:47:56;;;;;;;12.05;3.95;;;;;;;;;;10551356;27;20035;-71
2022/07/19 18:53:00;;;;;;;13.00;4.10;;;;;;;;;;10548804;28;20834;-71
2022/07/19 18:58:04;;;;;;;7.60;3.70;;;;;;;;;;10552012;27;20496;-74
2022/07/19 19:03:08;;;;;;;9.77;3.72;;;;;;;;;;10550625;27;20048;-74
2022/07/19 19:08:11;;;;;;;10.88;3.67;;;;;;;;;;10547833;28;20040;-72
2022/07/19 19:13:16;;;;;;;11.70;4.25;;;;;;;;;;10550035;27;20415;-73
2022/07/19 19:18:19;;;;;;;13.43;4.20;;;;;;;;;;10553807;27;20028;-73
2022/07/19 19:23:22;;;;;;;10.65;3.60;;;;;;;;;;10558064;27;20054;-73
2022/07/19 19:28:24;;;;;;;;;;;;;;;;;;10553730;27;20471;-73
2022/07/19 19:33:29;;;;;;;7.18;3.10;;;;;;;;;;10547503;28;19927;-74
2022/07/19 19:38:32;;;;;;;11.60;3.45;;;;;;;;;;10550286;27;20035;-72
2022/07/19 19:43:35;;;;;;;7.18;3.10;;;;;;;;;;10547476;28;20412;-72
2022/07/19 19:48:42;;;;;;;5.63;3.00;;;;;;;;;;10548937;27;20157;-73
2022/07/19 19:53:45;;;;;;;7.78;3.30;;;;;;;;;;10552902;27;20036;-73
2022/07/19 19:58:48;;;;;;;11.45;3.10;;;;;;;;;;10561709;28;20024;-72
2022/07/19 20:03:53;;;;;;;7.53;3.08;;;;;;;;;;10562968;28;20590;-71
2022/07/19 20:08:55;;;;;;;7.50;3.28;;;;;;;;;;10557403;28;20433;-72
2022/07/19 20:13:59;;;;;;;5.88;3.22;;;;;;;;;;10559081;27;20518;-74
2022/07/19 20:19:01;;;;;;;;;;;;;;;;;;10559866;28;20487;-71
2022/07/19 20:24:06;;;;;;;8.70;3.20;;;;;;;;;;10559375;28;19924;-71
2022/07/19 20:29:08;;;;;;;10.85;3.28;;;;;;;;;;10558482;27;20058;-70
2022/07/19 20:34:11;;;;;;;9.02;3.72;;;;;;;;;;10563109;27;20054;-72
2022/07/19 20:39:14;;;;;;;;;;;;;;;;;;10560033;28;20035;-72
2022/07/19 20:44:18;;;;;;;5.63;3.13;;;;;;;;;;10562000;27;19924;-71
2022/07/19 20:49:21;;;;;;;8.88;2.95;;;;;;;;;;10563585;27;20585;-72
2022/07/19 20:54:27;;;;;;;7.93;3.33;;;;;;;;;;10559665;28;20040;-72
2022/07/19 20:59:33;;;;;;;13.55;3.20;;;;;;;;;;10561775;28;20491;-70
2022/07/19 21:04:35;;;;;;;9.00;3.03;;;;;;;;;;10555761;28;20036;-71
2022/07/19 21:09:38;;;;;;;6.00;2.65;;;;;;;;;;10556967;27;20680;-71
2022/07/19 21:14:42;;;;;;;5.75;2.63;;;;;;;;;;10563971;27;20044;-71
2022/07/19 21:19:46;;;;;;;7.35;3.13;;;;;;;;;;10561193;28;20458;-71
2022/07/19 21:24:48;;;;;;;9.70;3.70;;;;;;;;;;10553828;28;20131;-71
2022/07/19 21:29:52;;;;;;;8.80;3.92;;;;;;;;;;10563352;28;20070;-71
2022/07/19 21:34:55;;;;;;;8.88;3.05;;;;;;;;;;10561913;28;20042;-71
2022/07/19 21:39:58;;;;;;;6.72;3.05;;;;;;;;;;10557963;28;20066;-72
2022/07/19 21:45:02;;;;;;;9.13;3.90;;;;;;;;;;10554446;28;20118;-72
2022/07/19 21:50:05;;;;;;;10.50;2.83;;;;;;;;;;10561188;28;20620;-72
2022/07/19 21:55:08;;;;;;;7.85;3.25;;;;;;;;;;10557312;28;20043;-72
2022/07/19 22:00:11;;;;;;;;;;;;;;;;;;10557188;28;20047;-70
2022/07/19 22:05:15;;;;;;;6.90;3.15;;;;;;;;;;10567238;27;19923;-73
2022/07/19 22:10:18;;;;;;;5.95;3.05;;;;;;;;;;10567999;28;20062;-73
2022/07/19 22:15:21;;;;;;;7.43;2.80;;;;;;;;;;10569356;27;20047;-73
2022/07/19 22:20:25;;;;;;;8.02;3.08;;;;;;;;;;10573887;27;20031;-74
2022/07/19 22:25:28;;;;;;;6.03;2.92;;;;;;;;;;10565931;28;20055;-73
2022/07/19 22:30:32;;;;;;;5.25;2.65;;;;;;;;;;10570098;27;20040;-71
2022/07/19 22:35:36;;;;;;;8.70;3.20;;;;;;;;;;10561364;28;20040;-72
2022/07/19 22:40:39;;;;;;;7.68;3.05;;;;;;;;;;10571028;27;20063;-70
2022/07/19 22:45:42;;;;;;;11.90;3.20;;;;;;;;;;10565789;28;20046;-71
2022/07/19 22:50:47;;;;;;;5.55;3.22;;;;;;;;;;10562710;28;20054;-71
2022/07/19 22:55:49;;;;;;;6.13;3.08;;;;;;;;;;10563222;27;20052;-72
2022/07/19 23:00:52;;;;;;;5.95;3.03;;;;;;;;;;10563434;27;20043;-73
2022/07/19 23:05:57;;;;;;;6.75;3.00;;;;;;;;;;10554560;28;20768;-72
2022/07/19 23:11:00;;;;;;;7.93;2.95;;;;;;;;;;10563654;28;20048;-72
2022/07/19 23:16:04;;;;;;;5.22;2.90;;;;;;;;;;10567118;27;20032;-72
2022/07/19 23:21:08;;;;;;;4.15;2.45;;;;;;;;;;10568795;27;20515;-71
2022/07/19 23:26:12;;;;;;;5.40;2.80;;;;;;;;;;10555539;28;20117;-72
2022/07/19 23:31:15;;;;;;;4.47;2.30;;;;;;;;;;10565456;28;20066;-72
2022/07/19 23:36:19;;;;;;;5.70;2.60;;;;;;;;;;10557306;28;20035;-74
2022/07/19 23:41:24;;;;;;;5.10;3.05;;;;;;;;;;10565099;28;20090;-73
2022/07/19 23:46:29;;;;;;;7.53;3.50;;;;;;;;;;10566038;27;20031;-72
2022/07/19 23:51:33;;;;;;;5.20;2.90;;;;;;;;;;10562746;28;20032;-71
2022/07/19 23:56:37;;;;;;;5.75;2.97;;;;;;;;;;10562159;27;20771;-71
